sensor_id;sensor_type;location;lat;lon;timestamp;temperature;humidity
7822;DHT22;3956;50.558;9.678;2023-02-28T00:02:02;-1.10;97.40
7822;DHT22;3956;50.558;9.678;2023-02-28T00:04:36;-1.00;75.30
7822;DHT22;3956;50.558;9.678;2023-02-28T00:07:06;-1.00;76.70
7822;DHT22;3956;50.558;9.678;2023-02-28T00:09:38;-0.90;74.50
7822;DHT22;3956;50.558;9.678;2023-02-28T00:12:07;-0.80;68.20
7822;DHT22;3956;50.558;9.678;2023-02-28T00:14:36;-0.80;65.10
7822;DHT22;3956;50.558;9.678;2023-02-28T00:17:05;-0.80;66.20
7822;DHT22;3956;50.558;9.678;2023-02-28T00:19:34;-0.80;63.10
7822;DHT22;3956;50.558;9.678;2023-02-28T00:22:03;-0.80;61.30
7822;DHT22;3956;50.558;9.678;2023-02-28T00:24:32;-0.70;62.40
7822;DHT22;3956;50.558;9.678;2023-02-28T00:27:01;-0.70;60.20
7822;DHT22;3956;50.558;9.678;2023-02-28T00:29:29;-0.70;58.50
7822;DHT22;3956;50.558;9.678;2023-02-28T00:31:57;-0.70;59.20
7822;DHT22;3956;50.558;9.678;2023-02-28T00:34:30;-0.80;57.80
7822;DHT22;3956;50.558;9.678;2023-02-28T00:36:59;-0.80;62.60
7822;DHT22;3956;50.558;9.678;2023-02-28T00:39:27;-0.80;64.70
7822;DHT22;3956;50.558;9.678;2023-02-28T00:41:57;-0.90;69.40
7822;DHT22;3956;50.558;9.678;2023-02-28T00:44:25;-0.90;71.00
7822;DHT22;3956;50.558;9.678;2023-02-28T00:46:56;-1.00;73.50
7822;DHT22;3956;50.558;9.678;2023-02-28T00:49:26;-1.10;74.50
7822;DHT22;3956;50.558;9.678;2023-02-28T00:51:54;-1.10;76.10
7822;DHT22;3956;50.558;9.678;2023-02-28T00:54:25;-1.10;76.20
7822;DHT22;3956;50.558;9.678;2023-02-28T00:56:54;-1.10;78.90
7822;DHT22;3956;50.558;9.678;2023-02-28T00:59:23;-1.20;81.00
7822;DHT22;3956;50.558;9.678;2023-02-28T01:01:52;-1.20;85.80
7822;DHT22;3956;50.558;9.678;2023-02-28T01:04:24;-1.20;82.80
7822;DHT22;3956;50.558;9.678;2023-02-28T01:06:52;-1.20;85.90
7822;DHT22;3956;50.558;9.678;2023-02-28T01:09:21;-1.30;84.60
7822;DHT22;3956;50.558;9.678;2023-02-28T01:11:53;-1.30;81.70
7822;DHT22;3956;50.558;9.678;2023-02-28T01:14:24;-1.30;81.70
7822;DHT22;3956;50.558;9.678;2023-02-28T01:16:58;-1.30;81.10
7822;DHT22;3956;50.558;9.678;2023-02-28T01:19:26;-1.30;78.30
7822;DHT22;3956;50.558;9.678;2023-02-28T01:21:54;-1.40;77.50
7822;DHT22;3956;50.558;9.678;2023-02-28T01:24:23;-1.40;77.00
7822;DHT22;3956;50.558;9.678;2023-02-28T01:26:55;-1.20;77.40
7822;DHT22;3956;50.558;9.678;2023-02-28T01:29:24;-1.40;73.60
7822;DHT22;3956;50.558;9.678;2023-02-28T01:31:53;-1.40;77.20
7822;DHT22;3956;50.558;9.678;2023-02-28T01:34:22;-1.40;76.20
7822;DHT22;3956;50.558;9.678;2023-02-28T01:36:53;-1.40;70.70
7822;DHT22;3956;50.558;9.678;2023-02-28T01:39:21;-1.50;74.10
7822;DHT22;3956;50.558;9.678;2023-02-28T01:41:50;-1.40;69.70
7822;DHT22;3956;50.558;9.678;2023-02-28T01:44:59;-1.40;70.60
7822;DHT22;3956;50.558;9.678;2023-02-28T01:47:30;-1.50;70.70
7822;DHT22;3956;50.558;9.678;2023-02-28T01:50:02;-1.40;69.70
7822;DHT22;3956;50.558;9.678;2023-02-28T01:52:36;-1.50;70.30
7822;DHT22;3956;50.558;9.678;2023-02-28T01:55:07;-1.40;69.10
7822;DHT22;3956;50.558;9.678;2023-02-28T01:57:45;-1.40;63.40
7822;DHT22;3956;50.558;9.678;2023-02-28T02:00:17;-1.40;63.20
7822;DHT22;3956;50.558;9.678;2023-02-28T02:02:48;-1.40;65.00
7822;DHT22;3956;50.558;9.678;2023-02-28T02:05:21;-1.60;68.00
7822;DHT22;3956;50.558;9.678;2023-02-28T02:07:54;-1.60;72.60
7822;DHT22;3956;50.558;9.678;2023-02-28T02:10:27;-1.60;71.90
7822;DHT22;3956;50.558;9.678;2023-02-28T02:13:11;-1.60;73.30
7822;DHT22;3956;50.558;9.678;2023-02-28T02:15:49;-1.70;78.70
7822;DHT22;3956;50.558;9.678;2023-02-28T02:18:28;-1.70;77.80
7822;DHT22;3956;50.558;9.678;2023-02-28T02:24:36;-1.70;72.40
7822;DHT22;3956;50.558;9.678;2023-02-28T02:27:26;-1.80;75.30
7822;DHT22;3956;50.558;9.678;2023-02-28T02:30:21;-1.70;96.10
7822;DHT22;3956;50.558;9.678;2023-02-28T02:33:09;-1.60;68.90
7822;DHT22;3956;50.558;9.678;2023-02-28T02:35:47;-1.70;69.30
7822;DHT22;3956;50.558;9.678;2023-02-28T02:38:29;-1.70;75.10
7822;DHT22;3956;50.558;9.678;2023-02-28T02:41:05;-1.80;74.10
7822;DHT22;3956;50.558;9.678;2023-02-28T02:43:47;-1.80;76.50
7822;DHT22;3956;50.558;9.678;2023-02-28T02:46:21;-1.70;70.40
7822;DHT22;3956;50.558;9.678;2023-02-28T02:48:54;-1.60;69.40
7822;DHT22;3956;50.558;9.678;2023-02-28T02:51:27;-1.40;61.90
7822;DHT22;3956;50.558;9.678;2023-02-28T02:54:02;-1.40;60.80
7822;DHT22;3956;50.558;9.678;2023-02-28T02:56:35;-1.30;58.70
7822;DHT22;3956;50.558;9.678;2023-02-28T02:59:08;-1.30;59.70
7822;DHT22;3956;50.558;9.678;2023-02-28T03:01:41;-1.30;60.20
7822;DHT22;3956;50.558;9.678;2023-02-28T03:04:13;-1.30;55.40
7822;DHT22;3956;50.558;9.678;2023-02-28T03:06:44;-1.30;55.90
7822;DHT22;3956;50.558;9.678;2023-02-28T03:09:13;-1.30;55.60
7822;DHT22;3956;50.558;9.678;2023-02-28T03:11:42;-1.20;53.90
7822;DHT22;3956;50.558;9.678;2023-02-28T03:14:22;-1.10;53.40
7822;DHT22;3956;50.558;9.678;2023-02-28T03:17:14;-1.20;53.60
7822;DHT22;3956;50.558;9.678;2023-02-28T03:19:55;-1.10;51.10
7822;DHT22;3956;50.558;9.678;2023-02-28T03:22:56;-1.10;50.60
7822;DHT22;3956;50.558;9.678;2023-02-28T03:25:33;-1.00;49.40
7822;DHT22;3956;50.558;9.678;2023-02-28T03:28:08;-1.00;54.50
7822;DHT22;3956;50.558;9.678;2023-02-28T03:30:47;-1.10;53.20
7822;DHT22;3956;50.558;9.678;2023-02-28T03:33:21;-1.10;54.30
7822;DHT22;3956;50.558;9.678;2023-02-28T03:35:55;-1.20;55.50
7822;DHT22;3956;50.558;9.678;2023-02-28T03:38:36;-1.30;90.90
7822;DHT22;3956;50.558;9.678;2023-02-28T03:41:14;-1.40;66.80
7822;DHT22;3956;50.558;9.678;2023-02-28T03:43:49;-1.40;92.50
7822;DHT22;3956;50.558;9.678;2023-02-28T03:46:24;-1.50;71.90
7822;DHT22;3956;50.558;9.678;2023-02-28T03:48:56;-1.40;68.30
7822;DHT22;3956;50.558;9.678;2023-02-28T03:51:27;-1.50;69.40
7822;DHT22;3956;50.558;9.678;2023-02-28T03:53:59;-1.60;72.50
7822;DHT22;3956;50.558;9.678;2023-02-28T03:56:33;-1.60;71.40
7822;DHT22;3956;50.558;9.678;2023-02-28T03:59:07;-1.60;75.50
7822;DHT22;3956;50.558;9.678;2023-02-28T04:01:41;-1.60;71.90
7822;DHT22;3956;50.558;9.678;2023-02-28T04:04:13;-1.50;69.80
7822;DHT22;3956;50.558;9.678;2023-02-28T04:06:45;-1.50;65.60
7822;DHT22;3956;50.558;9.678;2023-02-28T04:09:15;-1.50;64.40
7822;DHT22;3956;50.558;9.678;2023-02-28T04:11:49;-1.50;62.30
7822;DHT22;3956;50.558;9.678;2023-02-28T04:14:19;-1.40;61.20
7822;DHT22;3956;50.558;9.678;2023-02-28T04:16:47;-1.40;60.30
7822;DHT22;3956;50.558;9.678;2023-02-28T04:19:17;-1.40;59.10
7822;DHT22;3956;50.558;9.678;2023-02-28T04:21:48;-1.30;57.00
7822;DHT22;3956;50.558;9.678;2023-02-28T04:24:24;-1.30;56.70
7822;DHT22;3956;50.558;9.678;2023-02-28T04:26:54;-1.20;59.40
7822;DHT22;3956;50.558;9.678;2023-02-28T04:29:24;-1.30;57.20
7822;DHT22;3956;50.558;9.678;2023-02-28T04:31:57;-1.40;58.90
7822;DHT22;3956;50.558;9.678;2023-02-28T04:34:28;-1.30;64.10
7822;DHT22;3956;50.558;9.678;2023-02-28T04:37:01;-1.40;63.30
7822;DHT22;3956;50.558;9.678;2023-02-28T04:40:06;-1.30;61.20
7822;DHT22;3956;50.558;9.678;2023-02-28T04:42:39;-1.30;59.00
7822;DHT22;3956;50.558;9.678;2023-02-28T04:45:13;-1.40;63.10
7822;DHT22;3956;50.558;9.678;2023-02-28T04:47:42;-1.40;65.00
7822;DHT22;3956;50.558;9.678;2023-02-28T04:50:12;-1.40;68.20
7822;DHT22;3956;50.558;9.678;2023-02-28T04:52:41;-1.30;64.80
7822;DHT22;3956;50.558;9.678;2023-02-28T04:55:14;-1.40;65.00
7822;DHT22;3956;50.558;9.678;2023-02-28T04:57:42;-1.40;65.30
7822;DHT22;3956;50.558;9.678;2023-02-28T05:00:12;-1.40;66.30
7822;DHT22;3956;50.558;9.678;2023-02-28T05:02:55;-1.40;66.30
7822;DHT22;3956;50.558;9.678;2023-02-28T05:05:25;-1.40;68.30
7822;DHT22;3956;50.558;9.678;2023-02-28T05:07:53;-1.30;71.50
7822;DHT22;3956;50.558;9.678;2023-02-28T05:10:25;-1.40;75.90
7822;DHT22;3956;50.558;9.678;2023-02-28T05:12:55;-1.50;76.50
7822;DHT22;3956;50.558;9.678;2023-02-28T05:15:34;-1.40;80.80
7822;DHT22;3956;50.558;9.678;2023-02-28T05:18:19;-1.30;80.90
7822;DHT22;3956;50.558;9.678;2023-02-28T05:20:47;-1.40;82.60
7822;DHT22;3956;50.558;9.678;2023-02-28T05:23:16;-1.50;88.70
7822;DHT22;3956;50.558;9.678;2023-02-28T05:25:47;-1.40;90.70
7822;DHT22;3956;50.558;9.678;2023-02-28T05:28:15;-1.50;90.00
7822;DHT22;3956;50.558;9.678;2023-02-28T05:30:43;-1.50;91.30
7822;DHT22;3956;50.558;9.678;2023-02-28T05:33:12;-1.50;90.50
7822;DHT22;3956;50.558;9.678;2023-02-28T05:35:40;-1.50;89.00
7822;DHT22;3956;50.558;9.678;2023-02-28T05:38:10;-1.50;90.60
7822;DHT22;3956;50.558;9.678;2023-02-28T05:40:40;-1.60;91.90
7822;DHT22;3956;50.558;9.678;2023-02-28T05:43:11;-1.60;93.10
7822;DHT22;3956;50.558;9.678;2023-02-28T05:45:39;-1.60;92.50
7822;DHT22;3956;50.558;9.678;2023-02-28T05:48:08;-1.70;94.20
7822;DHT22;3956;50.558;9.678;2023-02-28T05:50:36;-1.70;94.80
7822;DHT22;3956;50.558;9.678;2023-02-28T05:53:10;-1.70;94.70
7822;DHT22;3956;50.558;9.678;2023-02-28T05:56:21;-1.70;96.10
7822;DHT22;3956;50.558;9.678;2023-02-28T05:59:31;-1.80;97.10
7822;DHT22;3956;50.558;9.678;2023-02-28T06:01:59;-1.80;99.00
7822;DHT22;3956;50.558;9.678;2023-02-28T06:04:31;-1.70;99.90
7822;DHT22;3956;50.558;9.678;2023-02-28T06:07:00;-1.70;99.90
7822;DHT22;3956;50.558;9.678;2023-02-28T06:09:32;-1.80;99.90
7822;DHT22;3956;50.558;9.678;2023-02-28T06:12:04;-1.80;99.90
7822;DHT22;3956;50.558;9.678;2023-02-28T06:14:45;-1.80;99.90
7822;DHT22;3956;50.558;9.678;2023-02-28T06:17:20;-1.80;99.90
7822;DHT22;3956;50.558;9.678;2023-02-28T06:19:50;-1.80;99.90
7822;DHT22;3956;50.558;9.678;2023-02-28T06:23:13;-1.90;99.90
7822;DHT22;3956;50.558;9.678;2023-02-28T06:26:20;-1.90;99.90
7822;DHT22;3956;50.558;9.678;2023-02-28T06:29:40;-1.90;99.90
7822;DHT22;3956;50.558;9.678;2023-02-28T06:36:39;-1.90;99.90
7822;DHT22;3956;50.558;9.678;2023-02-28T06:39:13;-1.90;99.90
7822;DHT22;3956;50.558;9.678;2023-02-28T06:42:12;-1.90;99.90
7822;DHT22;3956;50.558;9.678;2023-02-28T06:45:00;-1.90;99.90
7822;DHT22;3956;50.558;9.678;2023-02-28T06:47:40;-1.80;99.90
7822;DHT22;3956;50.558;9.678;2023-02-28T06:50:14;-1.80;99.90
7822;DHT22;3956;50.558;9.678;2023-02-28T06:52:49;-1.70;99.90
7822;DHT22;3956;50.558;9.678;2023-02-28T06:55:22;-1.70;99.90
7822;DHT22;3956;50.558;9.678;2023-02-28T06:57:50;-1.80;99.90
7822;DHT22;3956;50.558;9.678;2023-02-28T07:00:21;-1.80;99.90
7822;DHT22;3956;50.558;9.678;2023-02-28T07:02:49;-1.70;99.90
7822;DHT22;3956;50.558;9.678;2023-02-28T07:05:18;-1.70;99.90
7822;DHT22;3956;50.558;9.678;2023-02-28T07:07:48;-1.60;99.70
7822;DHT22;3956;50.558;9.678;2023-02-28T07:10:21;-1.50;97.80
7822;DHT22;3956;50.558;9.678;2023-02-28T07:12:49;-1.50;96.20
7822;DHT22;3956;50.558;9.678;2023-02-28T07:15:18;-1.40;93.70
7822;DHT22;3956;50.558;9.678;2023-02-28T07:17:51;-1.30;91.60
7822;DHT22;3956;50.558;9.678;2023-02-28T07:20:19;-1.30;89.50
7822;DHT22;3956;50.558;9.678;2023-02-28T07:22:48;-1.20;86.30
7822;DHT22;3956;50.558;9.678;2023-02-28T07:25:24;-1.10;78.40
7822;DHT22;3956;50.558;9.678;2023-02-28T07:27:56;-0.90;74.40
7822;DHT22;3956;50.558;9.678;2023-02-28T07:30:30;-0.10;62.00
7822;DHT22;3956;50.558;9.678;2023-02-28T07:33:12;2.40;1.00
7822;DHT22;3956;50.558;9.678;2023-02-28T07:36:04;3.10;1.00
7822;DHT22;3956;50.558;9.678;2023-02-28T07:38:54;3.10;1.00
7822;DHT22;3956;50.558;9.678;2023-02-28T07:41:37;4.10;1.00
7822;DHT22;3956;50.558;9.678;2023-02-28T07:44:12;6.10;1.00
7822;DHT22;3956;50.558;9.678;2023-02-28T07:46:41;3.70;1.00
7822;DHT22;3956;50.558;9.678;2023-02-28T07:49:10;4.00;1.00
7822;DHT22;3956;50.558;9.678;2023-02-28T07:51:39;3.10;1.00
7822;DHT22;3956;50.558;9.678;2023-02-28T07:54:10;3.90;1.00
7822;DHT22;3956;50.558;9.678;2023-02-28T07:56:45;3.00;1.00
7822;DHT22;3956;50.558;9.678;2023-02-28T07:59:49;4.30;1.00
7822;DHT22;3956;50.558;9.678;2023-02-28T08:02:25;5.10;1.00
7822;DHT22;3956;50.558;9.678;2023-02-28T08:04:57;5.20;1.00
7822;DHT22;3956;50.558;9.678;2023-02-28T08:07:40;3.90;1.00
7822;DHT22;3956;50.558;9.678;2023-02-28T08:10:10;3.10;1.00
7822;DHT22;3956;50.558;9.678;2023-02-28T08:12:39;5.60;1.00
7822;DHT22;3956;50.558;9.678;2023-02-28T08:15:08;7.00;1.00
7822;DHT22;3956;50.558;9.678;2023-02-28T08:17:44;5.40;1.00
7822;DHT22;3956;50.558;9.678;2023-02-28T08:20:46;6.00;1.00
7822;DHT22;3956;50.558;9.678;2023-02-28T08:23:25;5.50;1.00
7822;DHT22;3956;50.558;9.678;2023-02-28T08:26:10;4.90;1.00
7822;DHT22;3956;50.558;9.678;2023-02-28T08:28:53;4.80;1.00
7822;DHT22;3956;50.558;9.678;2023-02-28T08:31:24;4.80;1.00
7822;DHT22;3956;50.558;9.678;2023-02-28T08:34:07;4.40;1.00
7822;DHT22;3956;50.558;9.678;2023-02-28T08:36:43;3.60;1.00
7822;DHT22;3956;50.558;9.678;2023-02-28T08:39:24;3.30;1.00
7822;DHT22;3956;50.558;9.678;2023-02-28T08:41:54;4.10;1.00
7822;DHT22;3956;50.558;9.678;2023-02-28T08:44:37;4.90;1.00
7822;DHT22;3956;50.558;9.678;2023-02-28T08:47:22;2.60;1.00
7822;DHT22;3956;50.558;9.678;2023-02-28T08:49:54;3.00;1.00
7822;DHT22;3956;50.558;9.678;2023-02-28T08:52:27;3.90;1.00
7822;DHT22;3956;50.558;9.678;2023-02-28T08:54:58;4.40;1.00
7822;DHT22;3956;50.558;9.678;2023-02-28T08:57:30;3.40;1.00
7822;DHT22;3956;50.558;9.678;2023-02-28T09:00:49;3.10;1.00
7822;DHT22;3956;50.558;9.678;2023-02-28T09:03:19;3.30;1.00
7822;DHT22;3956;50.558;9.678;2023-02-28T09:06:01;3.70;1.00
7822;DHT22;3956;50.558;9.678;2023-02-28T09:09:09;3.50;1.00
7822;DHT22;3956;50.558;9.678;2023-02-28T09:11:47;2.50;1.00
7822;DHT22;3956;50.558;9.678;2023-02-28T09:14:19;2.10;1.00
7822;DHT22;3956;50.558;9.678;2023-02-28T09:17:00;1.60;1.00
7822;DHT22;3956;50.558;9.678;2023-02-28T09:19:31;1.50;1.00
7822;DHT22;3956;50.558;9.678;2023-02-28T09:22:02;1.10;1.00
7822;DHT22;3956;50.558;9.678;2023-02-28T09:24:30;1.20;1.00
7822;DHT22;3956;50.558;9.678;2023-02-28T09:27:04;1.20;1.00
7822;DHT22;3956;50.558;9.678;2023-02-28T09:29:38;1.10;1.00
7822;DHT22;3956;50.558;9.678;2023-02-28T09:32:06;1.40;1.00
7822;DHT22;3956;50.558;9.678;2023-02-28T09:34:37;1.20;1.00
7822;DHT22;3956;50.558;9.678;2023-02-28T09:37:06;1.20;1.00
7822;DHT22;3956;50.558;9.678;2023-02-28T09:39:34;1.40;1.00
7822;DHT22;3956;50.558;9.678;2023-02-28T09:42:05;1.30;1.00
7822;DHT22;3956;50.558;9.678;2023-02-28T09:44:40;1.40;1.00
7822;DHT22;3956;50.558;9.678;2023-02-28T09:47:17;1.70;1.00
7822;DHT22;3956;50.558;9.678;2023-02-28T09:50:31;1.90;1.00
7822;DHT22;3956;50.558;9.678;2023-02-28T09:53:31;1.70;1.00
7822;DHT22;3956;50.558;9.678;2023-02-28T09:56:09;1.50;1.00
7822;DHT22;3956;50.558;9.678;2023-02-28T10:01:21;1.40;1.00
7822;DHT22;3956;50.558;9.678;2023-02-28T10:03:54;1.50;1.00
7822;DHT22;3956;50.558;9.678;2023-02-28T10:06:29;1.70;1.00
7822;DHT22;3956;50.558;9.678;2023-02-28T10:09:12;1.30;1.00
7822;DHT22;3956;50.558;9.678;2023-02-28T10:12:03;1.90;1.00
7822;DHT22;3956;50.558;9.678;2023-02-28T10:14:33;1.60;1.00
7822;DHT22;3956;50.558;9.678;2023-02-28T10:17:10;1.70;1.00
7822;DHT22;3956;50.558;9.678;2023-02-28T10:19:46;2.30;1.00
7822;DHT22;3956;50.558;9.678;2023-02-28T10:22:20;2.20;1.00
7822;DHT22;3956;50.558;9.678;2023-02-28T10:24:52;1.60;1.00
7822;DHT22;3956;50.558;9.678;2023-02-28T10:27:23;1.80;12.00
7822;DHT22;3956;50.558;9.678;2023-02-28T10:29:54;2.00;1.00
7822;DHT22;3956;50.558;9.678;2023-02-28T10:32:29;2.20;1.00
7822;DHT22;3956;50.558;9.678;2023-02-28T10:35:09;2.10;1.00
7822;DHT22;3956;50.558;9.678;2023-02-28T10:37:41;2.20;1.00
7822;DHT22;3956;50.558;9.678;2023-02-28T10:40:27;2.30;1.00
7822;DHT22;3956;50.558;9.678;2023-02-28T10:43:01;1.90;1.00
7822;DHT22;3956;50.558;9.678;2023-02-28T10:45:35;1.90;1.00
7822;DHT22;3956;50.558;9.678;2023-02-28T10:48:27;1.80;1.00
7822;DHT22;3956;50.558;9.678;2023-02-28T10:50:56;1.50;1.00
7822;DHT22;3956;50.558;9.678;2023-02-28T10:53:35;1.60;1.00
7822;DHT22;3956;50.558;9.678;2023-02-28T10:56:34;1.60;1.00
7822;DHT22;3956;50.558;9.678;2023-02-28T11:00:07;1.70;1.00
7822;DHT22;3956;50.558;9.678;2023-02-28T11:02:42;1.60;1.00
7822;DHT22;3956;50.558;9.678;2023-02-28T11:05:48;1.50;1.00
7822;DHT22;3956;50.558;9.678;2023-02-28T11:08:22;1.70;1.00
7822;DHT22;3956;50.558;9.678;2023-02-28T11:10:59;1.60;1.00
7822;DHT22;3956;50.558;9.678;2023-02-28T11:13:33;1.50;1.00
7822;DHT22;3956;50.558;9.678;2023-02-28T11:16:04;1.50;1.00
7822;DHT22;3956;50.558;9.678;2023-02-28T11:18:38;1.50;1.00
7822;DHT22;3956;50.558;9.678;2023-02-28T11:21:17;1.90;1.00
7822;DHT22;3956;50.558;9.678;2023-02-28T11:23:48;2.10;1.00
7822;DHT22;3956;50.558;9.678;2023-02-28T11:26:40;2.50;1.00
7822;DHT22;3956;50.558;9.678;2023-02-28T11:29:19;2.80;1.00
7822;DHT22;3956;50.558;9.678;2023-02-28T11:32:09;2.80;1.00
7822;DHT22;3956;50.558;9.678;2023-02-28T11:34:41;2.50;1.00
7822;DHT22;3956;50.558;9.678;2023-02-28T11:37:19;2.30;1.00
7822;DHT22;3956;50.558;9.678;2023-02-28T11:40:04;2.80;2.20
7822;DHT22;3956;50.558;9.678;2023-02-28T11:42:49;2.30;1.00
7822;DHT22;3956;50.558;9.678;2023-02-28T11:45:36;2.40;1.00
7822;DHT22;3956;50.558;9.678;2023-02-28T11:48:20;2.30;1.00
7822;DHT22;3956;50.558;9.678;2023-02-28T11:51:29;2.50;1.00
7822;DHT22;3956;50.558;9.678;2023-02-28T11:54:32;2.70;1.00
7822;DHT22;3956;50.558;9.678;2023-02-28T11:57:19;2.50;1.00
7822;DHT22;3956;50.558;9.678;2023-02-28T12:00:19;2.60;1.00
7822;DHT22;3956;50.558;9.678;2023-02-28T12:03:12;2.50;1.00
7822;DHT22;3956;50.558;9.678;2023-02-28T12:06:17;2.30;1.00
7822;DHT22;3956;50.558;9.678;2023-02-28T12:09:15;2.50;1.00
7822;DHT22;3956;50.558;9.678;2023-02-28T12:12:22;2.50;1.00
7822;DHT22;3956;50.558;9.678;2023-02-28T12:15:35;2.70;1.00
7822;DHT22;3956;50.558;9.678;2023-02-28T12:21:20;2.50;1.00
7822;DHT22;3956;50.558;9.678;2023-02-28T12:24:39;2.00;1.00
7822;DHT22;3956;50.558;9.678;2023-02-28T12:27:37;1.90;1.00
7822;DHT22;3956;50.558;9.678;2023-02-28T12:30:14;1.90;1.00
7822;DHT22;3956;50.558;9.678;2023-02-28T12:32:49;2.10;1.00
7822;DHT22;3956;50.558;9.678;2023-02-28T12:35:26;2.50;1.00
7822;DHT22;3956;50.558;9.678;2023-02-28T12:38:02;2.30;1.00
7822;DHT22;3956;50.558;9.678;2023-02-28T12:40:50;2.80;1.00
7822;DHT22;3956;50.558;9.678;2023-02-28T12:43:33;3.10;1.00
7822;DHT22;3956;50.558;9.678;2023-02-28T12:46:12;3.20;1.00
7822;DHT22;3956;50.558;9.678;2023-02-28T12:48:56;3.00;1.00
7822;DHT22;3956;50.558;9.678;2023-02-28T12:51:47;2.80;1.00
7822;DHT22;3956;50.558;9.678;2023-02-28T12:54:48;2.90;1.00
7822;DHT22;3956;50.558;9.678;2023-02-28T12:57:27;3.30;1.00
7822;DHT22;3956;50.558;9.678;2023-02-28T13:00:12;3.40;1.00
7822;DHT22;3956;50.558;9.678;2023-02-28T13:03:22;3.80;1.00
7822;DHT22;3956;50.558;9.678;2023-02-28T13:10:43;2.60;1.00
7822;DHT22;3956;50.558;9.678;2023-02-28T13:13:58;2.70;1.00
7822;DHT22;3956;50.558;9.678;2023-02-28T13:16:28;3.20;1.00
7822;DHT22;3956;50.558;9.678;2023-02-28T13:19:16;3.10;1.00
7822;DHT22;3956;50.558;9.678;2023-02-28T13:21:45;3.20;1.00
7822;DHT22;3956;50.558;9.678;2023-02-28T13:27:43;2.90;1.00
7822;DHT22;3956;50.558;9.678;2023-02-28T13:31:11;3.10;1.00
7822;DHT22;3956;50.558;9.678;2023-02-28T13:36:36;3.20;1.00
7822;DHT22;3956;50.558;9.678;2023-02-28T13:39:47;3.10;1.00
7822;DHT22;3956;50.558;9.678;2023-02-28T13:42:50;3.00;1.00
7822;DHT22;3956;50.558;9.678;2023-02-28T13:49:27;3.70;1.00
7822;DHT22;3956;50.558;9.678;2023-02-28T13:52:12;3.90;1.00
7822;DHT22;3956;50.558;9.678;2023-02-28T13:54:56;4.20;1.00
7822;DHT22;3956;50.558;9.678;2023-02-28T13:57:35;4.00;1.00
7822;DHT22;3956;50.558;9.678;2023-02-28T14:00:22;3.90;1.00
7822;DHT22;3956;50.558;9.678;2023-02-28T14:03:07;3.90;1.00
7822;DHT22;3956;50.558;9.678;2023-02-28T14:05:40;3.90;1.00
7822;DHT22;3956;50.558;9.678;2023-02-28T14:08:24;3.60;1.00
7822;DHT22;3956;50.558;9.678;2023-02-28T14:11:06;3.80;1.00
7822;DHT22;3956;50.558;9.678;2023-02-28T14:13:41;4.20;1.00
7822;DHT22;3956;50.558;9.678;2023-02-28T14:16:20;3.90;1.00
7822;DHT22;3956;50.558;9.678;2023-02-28T14:19:09;3.90;1.00
7822;DHT22;3956;50.558;9.678;2023-02-28T14:21:43;3.90;1.00
7822;DHT22;3956;50.558;9.678;2023-02-28T14:31:39;3.90;1.00
7822;DHT22;3956;50.558;9.678;2023-02-28T14:34:36;4.10;1.00
7822;DHT22;3956;50.558;9.678;2023-02-28T14:37:18;3.90;1.00
7822;DHT22;3956;50.558;9.678;2023-02-28T14:40:17;4.00;1.00
7822;DHT22;3956;50.558;9.678;2023-02-28T14:43:19;3.90;1.00
7822;DHT22;3956;50.558;9.678;2023-02-28T14:45:52;4.00;1.00
7822;DHT22;3956;50.558;9.678;2023-02-28T14:48:53;4.00;1.00
7822;DHT22;3956;50.558;9.678;2023-02-28T14:51:25;3.90;1.00
7822;DHT22;3956;50.558;9.678;2023-02-28T14:54:00;4.00;1.00
7822;DHT22;3956;50.558;9.678;2023-02-28T14:56:55;4.00;1.00
7822;DHT22;3956;50.558;9.678;2023-02-28T15:02:35;3.50;1.00
7822;DHT22;3956;50.558;9.678;2023-02-28T15:08:38;3.20;1.00
7822;DHT22;3956;50.558;9.678;2023-02-28T15:11:13;3.40;1.00
7822;DHT22;3956;50.558;9.678;2023-02-28T15:13:58;3.30;1.00
7822;DHT22;3956;50.558;9.678;2023-02-28T15:16:36;3.50;1.00
7822;DHT22;3956;50.558;9.678;2023-02-28T15:19:14;3.60;1.00
7822;DHT22;3956;50.558;9.678;2023-02-28T15:22:08;3.50;1.00
7822;DHT22;3956;50.558;9.678;2023-02-28T15:25:20;3.30;1.00
7822;DHT22;3956;50.558;9.678;2023-02-28T15:28:32;3.20;1.00
7822;DHT22;3956;50.558;9.678;2023-02-28T15:31:26;3.50;1.00
7822;DHT22;3956;50.558;9.678;2023-02-28T15:34:42;3.20;1.00
7822;DHT22;3956;50.558;9.678;2023-02-28T15:37:33;3.10;1.00
7822;DHT22;3956;50.558;9.678;2023-02-28T15:40:49;3.30;1.00
7822;DHT22;3956;50.558;9.678;2023-02-28T15:43:46;3.40;1.00
7822;DHT22;3956;50.558;9.678;2023-02-28T15:46:15;3.40;1.00
7822;DHT22;3956;50.558;9.678;2023-02-28T15:49:19;3.40;1.00
7822;DHT22;3956;50.558;9.678;2023-02-28T15:51:55;3.60;1.00
7822;DHT22;3956;50.558;9.678;2023-02-28T15:54:29;3.30;1.00
7822;DHT22;3956;50.558;9.678;2023-02-28T15:57:07;3.30;1.00
7822;DHT22;3956;50.558;9.678;2023-02-28T16:00:00;3.30;1.00
7822;DHT22;3956;50.558;9.678;2023-02-28T16:02:52;3.10;1.00
7822;DHT22;3956;50.558;9.678;2023-02-28T16:05:38;3.10;1.00
7822;DHT22;3956;50.558;9.678;2023-02-28T16:08:21;3.10;1.00
7822;DHT22;3956;50.558;9.678;2023-02-28T16:10:52;3.20;1.00
7822;DHT22;3956;50.558;9.678;2023-02-28T16:13:24;3.10;1.00
7822;DHT22;3956;50.558;9.678;2023-02-28T16:16:00;3.10;1.00
7822;DHT22;3956;50.558;9.678;2023-02-28T16:18:28;3.00;1.00
7822;DHT22;3956;50.558;9.678;2023-02-28T16:21:00;3.00;1.00
7822;DHT22;3956;50.558;9.678;2023-02-28T16:23:43;2.90;1.00
7822;DHT22;3956;50.558;9.678;2023-02-28T16:26:40;2.80;1.00
7822;DHT22;3956;50.558;9.678;2023-02-28T16:29:24;2.70;1.00
7822;DHT22;3956;50.558;9.678;2023-02-28T16:32:15;2.60;1.00
7822;DHT22;3956;50.558;9.678;2023-02-28T16:34:48;2.60;1.00
7822;DHT22;3956;50.558;9.678;2023-02-28T16:37:29;2.50;1.00
7822;DHT22;3956;50.558;9.678;2023-02-28T16:40:21;2.40;1.00
7822;DHT22;3956;50.558;9.678;2023-02-28T16:42:57;2.40;1.00
7822;DHT22;3956;50.558;9.678;2023-02-28T16:45:30;2.30;1.00
7822;DHT22;3956;50.558;9.678;2023-02-28T16:48:01;2.30;1.00
7822;DHT22;3956;50.558;9.678;2023-02-28T16:50:31;2.20;1.00
7822;DHT22;3956;50.558;9.678;2023-02-28T16:53:02;2.10;1.00
7822;DHT22;3956;50.558;9.678;2023-02-28T16:55:31;2.10;1.00
7822;DHT22;3956;50.558;9.678;2023-02-28T16:58:01;2.00;1.00
7822;DHT22;3956;50.558;9.678;2023-02-28T17:00:33;2.00;1.00
7822;DHT22;3956;50.558;9.678;2023-02-28T17:03:02;2.00;1.00
7822;DHT22;3956;50.558;9.678;2023-02-28T17:05:38;1.90;1.00
7822;DHT22;3956;50.558;9.678;2023-02-28T17:08:06;1.80;1.00
7822;DHT22;3956;50.558;9.678;2023-02-28T17:10:36;1.80;1.00
7822;DHT22;3956;50.558;9.678;2023-02-28T17:16:26;1.70;1.00
7822;DHT22;3956;50.558;9.678;2023-02-28T17:19:11;1.50;1.00
7822;DHT22;3956;50.558;9.678;2023-02-28T17:21:44;1.50;1.00
7822;DHT22;3956;50.558;9.678;2023-02-28T17:24:12;1.50;2.20
7822;DHT22;3956;50.558;9.678;2023-02-28T17:26:51;1.40;3.60
7822;DHT22;3956;50.558;9.678;2023-02-28T17:29:20;1.40;3.20
7822;DHT22;3956;50.558;9.678;2023-02-28T17:31:52;1.30;3.00
7822;DHT22;3956;50.558;9.678;2023-02-28T17:34:49;1.20;4.70
7822;DHT22;3956;50.558;9.678;2023-02-28T17:37:46;1.20;5.90
7822;DHT22;3956;50.558;9.678;2023-02-28T17:40:17;1.20;4.50
7822;DHT22;3956;50.558;9.678;2023-02-28T17:49:08;1.10;5.60
7822;DHT22;3956;50.558;9.678;2023-02-28T17:52:02;1.00;8.60
7822;DHT22;3956;50.558;9.678;2023-02-28T17:54:55;1.00;9.10
7822;DHT22;3956;50.558;9.678;2023-02-28T17:57:47;0.90;9.00
7822;DHT22;3956;50.558;9.678;2023-02-28T18:00:39;0.90;8.30
7822;DHT22;3956;50.558;9.678;2023-02-28T18:03:31;0.90;9.50
7822;DHT22;3956;50.558;9.678;2023-02-28T18:06:21;0.80;10.10
7822;DHT22;3956;50.558;9.678;2023-02-28T18:09:19;0.80;9.10
7822;DHT22;3956;50.558;9.678;2023-02-28T18:16:07;0.70;9.60
7822;DHT22;3956;50.558;9.678;2023-02-28T18:19:00;0.60;14.80
7822;DHT22;3956;50.558;9.678;2023-02-28T18:21:55;0.50;15.30
7822;DHT22;3956;50.558;9.678;2023-02-28T18:24:47;0.50;17.20
7822;DHT22;3956;50.558;9.678;2023-02-28T18:27:41;0.50;17.50
7822;DHT22;3956;50.558;9.678;2023-02-28T18:30:49;0.40;18.60
7822;DHT22;3956;50.558;9.678;2023-02-28T18:33:52;0.40;18.10
7822;DHT22;3956;50.558;9.678;2023-02-28T18:36:44;0.40;17.80